Sunday, November 19, 2017, 10:32 AM GMT
Back to Local

CYPQ, Peterborough Airport

Location: , , Canada Lat: 44.233
Local Time: 10:32 AM GMT (10:32 GMT) Lon: -78.367
Time Zone: GMT Elev: 626 ft

Show me the last for .
Show Decoded

2017-11-19 10:26 METAR CYPQ 191026Z AUTO 31016G23KT 6SM -SN FEW014 OVC046 M01/M02 A2932 RMK
                 SLP937 =
2017-11-19 10:00 METAR CYPQ 191000Z AUTO 32020G25KT 3SM -SN FEW012 OVC027 M01/M02 A2929 RMK
                 PRESRR SLP928 =
2017-11-19 09:41 METAR CYPQ 190941Z AUTO 32019G27KT 3SM -SN FEW010 OVC025 M01/M02 A2927 RMK
                 PRESRR SLP919 =
2017-11-19 09:40 METAR CYPQ 190940Z AUTO 32017G25KT 2 1/2SM -SN FEW010 OVC025 M01/M02 A2927 RMK
                 PRESRR SLP919
2017-11-19 09:28 METAR CYPQ 190928Z AUTO 32015G20KT 2 1/2SM -SN FEW010 SCT018 BKN023 OVC030
                 M01/M01 A2926 RMK SLP915 =
2017-11-19 09:22 METAR CYPQ 190922Z AUTO 32011G17KT 2 1/2SM -SN FEW010 SCT017 BKN025 OVC030
                 M01/M01 A2925 RMK VIS VRB 1 1/2-3 SLP914 =
2017-11-19 09:08 METAR CYPQ 190908Z AUTO 34016G22KT 2 1/2SM -SN SCT012 BKN017 OVC030 M01/M01
                 A2925 RMK VIS VRB 1 1/2-3 SLP911 =
2017-11-19 09:01 METAR CYPQ 190901Z AUTO 33012G19KT 1 1/2SM -SN BKN012 OVC017 M01/M01 A2924 RMK
                 SLP910 =
2017-11-19 09:00 METAR CYPQ 190900Z AUTO 33012G20KT 1 1/4SM -SN BKN012 OVC017 M01/M01 A2924 RMK
                 SLP910 =
2017-11-19 08:53 METAR CYPQ 190853Z AUTO 34014G23KT 1 1/4SM -SN SCT012 OVC019 M00/M01 A2924 RMK
                 SLP908 =
2017-11-19 08:41 METAR CYPQ 190841Z AUTO 34014G19KT 2 1/4SM -SN BKN012 BKN019 OVC033 M00/M01
                 A2923 RMK VIS VRB 1 1/2-3 SLP905 =
2017-11-19 08:39 METAR CYPQ 190839Z AUTO 32012G17KT 2 1/2SM -SN BKN012 BKN019 OVC033 M00/M01
                 A2923 RMK VIS VRB 1 3/4-3 SLP905 =
2017-11-19 08:24 METAR CYPQ 190824Z AUTO 34013G19KT 5SM -SN BKN014 BKN018 OVC028 M00/M01 A2921
                 RMK SLP901 =
2017-11-19 08:17 METAR CYPQ 190817Z AUTO 35015G21KT 6SM -SN BKN014 OVC028 00/M01 A2921 RMK SLP901
                 =
2017-11-19 08:00 METAR CYPQ 190800Z AUTO 34014G23KT 5SM -SN FEW009 BKN014 BKN019 OVC028 00/M01
                 A2921 RMK PRESRR SLP899 =
2017-11-19 07:50 METAR CYPQ 190750Z AUTO 35014G24KT 6SM -SN SCT009 OVC016 00/M01 A2919 RMK PRESRR
                 SLP893 =
2017-11-19 07:40 METAR CYPQ 190740Z AUTO 35019G26KT 3SM -SN SCT009 BKN014 OVC020 00/M00 A2918 RMK
                 SLP887 =
2017-11-19 07:28 METAR CYPQ 190728Z AUTO 35014G23KT 3SM -SN BKN009 OVC014 01/00 A2917 RMK SLP886
                 =
2017-11-19 07:19 METAR CYPQ 190719Z AUTO 34014G24KT 5SM -SN SCT009 OVC016 01/00 A2917 RMK PRESRR
                 SLP884 =
2017-11-19 07:18 METAR CYPQ 190718Z AUTO 34015G24KT 5SM -SN BKN009 BKN014 OVC020 01/00 A2916 RMK
                 PRESRR SLP883 =
2017-11-19 07:15 METAR CYPQ 190715Z AUTO 34017G24KT 6SM -SN BKN009 OVC017 01/01 A2916 RMK SLP882
                 =
2017-11-19 07:06 METAR CYPQ 190706Z AUTO 34012KT 5SM -SN BKN009 OVC017 01/01 A2915 RMK SLP879 =
2017-11-19 07:02 METAR CYPQ 190702Z AUTO 34011G16KT 9SM -RASN BKN011 OVC017 01/01 A2915 RMK
                 SLP878 =
2017-11-19 07:00 METAR CYPQ 190700Z AUTO 34012G18KT 9SM -RA BKN011 OVC017 01/01 A2915 RMK SLP878
                 =
2017-11-19 06:53 METAR CYPQ 190653Z AUTO 34011G20KT 9SM -RA BKN011 OVC017 02/01 A2915 RMK SLP878
                 =
2017-11-19 06:00 METAR CYPQ 190600Z AUTO 35010G15KT 9SM -RA OVC009 02/02 A2914 RMK PCPN 1.8MM
                 PAST HR SLP875 =
2017-11-19 05:55 METAR CYPQ 190555Z AUTO 35010G15KT 9SM -RA OVC009 02/02 A2914 RMK SLP875 =
2017-11-19 05:17 METAR CYPQ 190517Z AUTO 34009KT 6SM RA BR OVC005 03/03 A2913 RMK SLP873 =
2017-11-19 05:07 METAR CYPQ 190507Z AUTO 36010KT 3SM RA BR OVC005 03/03 A2912 RMK SLP870 =
2017-11-19 05:02 METAR CYPQ 190502Z AUTO 01011KT 2 1/2SM -RA BR OVC005 03/03 A2912 RMK SLP869 =
2017-11-19 05:00 METAR CYPQ 190500Z AUTO 01010KT 2SM RA BR OVC005 03/03 A2912 RMK SLP867 =
2017-11-19 04:51 METAR CYPQ 190451Z AUTO 01010KT 2 1/4SM -RA BR OVC005 03/03 A2911 RMK SLP866 =
2017-11-19 04:32 METAR CYPQ 190432Z AUTO 03008KT 5SM -RA BR OVC005 03/03 A2911 RMK SLP866 =
2017-11-19 04:00 METAR CYPQ 190400Z AUTO 04008KT 9SM -RA OVC005 03/03 A2912 RMK SLP870 =
2017-11-19 03:56 METAR CYPQ 190356Z AUTO 04007KT 6SM -RA BR OVC005 03/03 A2912 RMK SLP870 =
2017-11-19 03:00 METAR CYPQ 190300Z AUTO 03009KT 3SM RA BR OVC005 04/04 A2917 RMK SLP886 =
2017-11-19 02:49 METAR CYPQ 190249Z AUTO 02007KT 5SM -RA BR OVC005 04/04 A2919 RMK SLP891 =
2017-11-19 02:22 METAR CYPQ 190222Z AUTO 03007KT 6SM -RA BR BKN005 OVC008 04/04 A2918 RMK SLP889
                 =
2017-11-19 02:00 METAR CYPQ 190200Z AUTO 04007KT 3SM RA BR BKN005 OVC008 04/04 A2919 RMK PRESFR
                 SLP892 =
2017-11-19 01:58 METAR CYPQ 190158Z AUTO 04007KT 3SM -RA BR OVC005 04/04 A2919 RMK PRESFR SLP893
                 =
2017-11-19 01:00 METAR CYPQ 190100Z AUTO 03005KT 4SM -RA BR OVC003 05/05 A2922 RMK PRESFR SLP903
                 =
2017-11-19 00:48 METAR CYPQ 190048Z AUTO 03007KT 3SM -RA BR OVC003 05/05 A2924 RMK SLP908 =
2017-11-19 00:38 METAR CYPQ 190038Z AUTO 03006KT 2 1/2SM -RA BR OVC003 05/05 A2924 RMK PRESFR
                 SLP910 =
2017-11-19 00:33 METAR CYPQ 190033Z AUTO 03005KT 2 1/4SM RA BR OVC003 05/05 A2925 RMK VIS VRB 2-2
                 1/2 SLP911 =
2017-11-19 00:25 METAR CYPQ 190025Z AUTO 03006KT 2 1/2SM -RA BR OVC003 05/05 A2925 RMK SLP914 =
2017-11-19 00:00 METAR CYPQ 190000Z AUTO 01006KT 3SM -RA BR OVC003 05/05 A2927 RMK PCPN 1.5MM
                 PAST HR SLP920 =
2017-11-18 23:13 METAR CYPQ 182313Z AUTO 07003KT 3SM -RA BR BKN003 OVC008 05/05 A2930 RMK SLP930
                 =
2017-11-18 23:10 METAR CYPQ 182310Z AUTO 09004KT 2 1/2SM RA BR BKN003 OVC008 05/05 A2931 RMK
                 SLP931 =
2017-11-18 23:00 METAR CYPQ 182300Z AUTO 08003KT 1 1/2SM RA BR OVC003 05/05 A2930 RMK SLP930 =
2017-11-18 22:48 METAR CYPQ 182248Z AUTO VRB02KT 1 1/4SM -RA BR OVC003 05/05 A2932 RMK SLP935 =
2017-11-18 22:31 METAR CYPQ 182231Z AUTO 06003KT 1 1/2SM -RA BR OVC003 05/05 A2932 RMK SLP936 =
2017-11-18 22:00 METAR CYPQ 182200Z AUTO 06003KT 1SM -RA BR VV003 05/05 A2933 RMK SLP939 =
2017-11-18 21:35 METAR CYPQ 182135Z AUTO 04004KT 1 1/4SM -RA BR OVC002 04/04 A2934 RMK SLP945 =
2017-11-18 21:34 METAR CYPQ 182134Z AUTO 04003KT 1 1/4SM BR OVC002 04/04 A2935 RMK SLP946 =
2017-11-18 21:00 METAR CYPQ 182100Z AUTO 04004KT 1 1/4SM -RA BR OVC002 04/04 A2936 RMK SLP950 =
2017-11-18 20:00 METAR CYPQ 182000Z AUTO 06003KT 1 1/4SM -RA BR OVC002 04/04 A2938 RMK SLP957 =
2017-11-18 19:57 METAR CYPQ 181957Z AUTO 06003KT 1 1/4SM -RA BR OVC002 04/04 A2938 RMK SLP958 =
2017-11-18 19:00 METAR CYPQ 181900Z AUTO 05003KT 1 1/2SM -RA BR OVC004 04/04 A2943 RMK PRESFR
                 SLP972 =
2017-11-18 18:00 METAR CYPQ 181800Z AUTO 05003KT 1 1/2SM -RA BR OVC004 04/04 A2945 RMK SLP982 =
2017-11-18 17:36 METAR CYPQ 181736Z AUTO 04003KT 2SM -RA BR OVC004 04/04 A2946 RMK SLP984 =
2017-11-18 17:29 METAR CYPQ 181729Z AUTO 05004KT 2 1/2SM -RA BR OVC004 03/03 A2946 RMK SLP985 =
2017-11-18 17:09 METAR CYPQ 181709Z AUTO VRB02KT 2 1/2SM BR OVC004 03/03 A2948 RMK SLP991 =
2017-11-18 17:08 METAR CYPQ 181708Z AUTO VRB02KT 2 1/2SM BR OVC006 03/03 A2948 RMK SLP992 =
2017-11-18 17:00 METAR CYPQ 181700Z AUTO 04004KT 3SM BR OVC006 04/03 A2947 RMK SLP989 =
2017-11-18 16:48 METAR CYPQ 181648Z AUTO 07003KT 040V110 4SM BR OVC006 03/03 A2947 RMK SLP989 =
2017-11-18 16:35 METAR CYPQ 181635Z AUTO 07003KT 030V090 5SM BR BKN008 OVC017 03/03 A2948 RMK
                 PRESFR SLP991 =
2017-11-18 16:00 METAR CYPQ 181600Z AUTO 05004KT 020V160 9SM SCT017 OVC024 03/02 A2952 RMK SLP006
                 =
2017-11-18 15:54 METAR CYPQ 181554Z AUTO VRB03KT 9SM BKN022 OVC027 03/02 A2953 RMK SLP008 =
2017-11-18 15:16 METAR CYPQ 181516Z AUTO 04004KT 020V100 9SM BKN025 OVC034 03/02 A2954 RMK PRESFR
                 SLP013 =
2017-11-18 15:00 METAR CYPQ 181500Z AUTO 10003KT 060V180 7SM BKN023 OVC029 02/02 A2957 RMK SLP021
                 =
2017-11-18 14:58 METAR CYPQ 181458Z AUTO 07003KT 060V180 7SM BKN023 OVC029 02/02 A2957 RMK SLP021
                 =
2017-11-18 14:55 METAR CYPQ 181455Z AUTO VRB02KT 9SM OVC025 02/02 A2957 RMK SLP022 =
2017-11-18 14:54 METAR CYPQ 181454Z AUTO VRB02KT 9SM BKN023 OVC029 02/02 A2957 RMK SLP023 =
2017-11-18 14:00 METAR CYPQ 181400Z AUTO 07003KT 9SM OVC033 02/02 A2956 RMK SLP019 =
2017-11-18 13:02 METAR CYPQ 181302Z AUTO 02005KT 9SM BKN030 OVC055 01/01 A2960 RMK SLP033 =
2017-11-18 13:00 METAR CYPQ 181300Z AUTO 01004KT 9SM -RA BKN030 BKN049 OVC060 01/01 A2960 RMK
                 SLP034 =
2017-11-18 12:43 METAR CYPQ 181243Z AUTO 03003KT 9SM -RA OVC055 01/01 A2961 RMK SLP035 =
2017-11-18 12:37 METAR CYPQ 181237Z AUTO 02002KT 9SM -RA -UP OVC060 01/01 A2961 RMK SLP036 =
2017-11-18 12:32 METAR CYPQ 181232Z AUTO 02003KT 6SM -UP BR OVC060 01/01 A2961 RMK SLP036 =
2017-11-18 12:26 METAR CYPQ 181226Z AUTO 03003KT 6SM -RA -UP BR OVC060 01/01 A2961 RMK SLP036 =
2017-11-18 12:10 METAR CYPQ 181210Z AUTO 05004KT 7SM -RA OVC060 01/01 A2961 RMK PRESFR SLP035 =
2017-11-18 12:00 METAR CYPQ 181200Z AUTO 06003KT 7SM -RA -UP OVC060 01/01 A2962 RMK PCPN 0.5MM
                 PAST HR SLP040 =
2017-11-18 11:57 METAR CYPQ 181157Z AUTO 06002KT 7SM -RA -UP OVC055 01/01 A2962 RMK SLP040 =
2017-11-18 11:23 METAR CYPQ 181123Z AUTO 06005KT 9SM -RA SCT060 BKN078 OVC095 01/M00 A2965 RMK
                 PRESFR SLP048 =
2017-11-18 11:00 METAR CYPQ 181100Z AUTO 03005KT 9SM BKN100 OVC130 01/M00 A2966 RMK SLP052 =

Support USWX by starting your Amazon purchase here.